Skip Navigation Links Skip Navigation Links

Current Weather

Central Park, New York

For information only: do not use for flight planning or navigation.
Latest weather
Observation time Saturday, October 21, 2017 2:51 PM EDT
Local time Saturday, October 21, 2017 3:32 PM EDT
Flight conditions Visual Meteorological Conditions
Winds
Wind direction South (180°)
Wind speed 3 mph
Visibility 10 mi.
Sky condition
Ceiling unlimited
Sky clear
Temperature 78°F
Dewpoint 38°F
Altimeter 30.32 in.Hg
Derived measurements
Relative humidity 24%
Heat index 78°F
Density altitude 1051 ft.
Sea-level pressure 30.29 in.Hg
Remarks
Fully automated report.
System requires maintenance.
Automated weather observing station with precipitation discriminator.
METAR KNYC 211851Z AUTO 18003KT 10SM CLR 26/03 A3032 RMK AO2 SLP257 T02560033 $

Settings

Location code

InnerDrive.Weather 4.0.6144.1 Release CLR 4.0.30319.36366
Copyright ©2015 Inner Drive Technology. All rights reserved. Portions Copyright ©1986-2015 David Braverman.

Find weather

Site navigation


Skip Navigation Links

Place info

Page info

PayPal - The safer, easier way to pay online!

Return home.

Copyright ©2017 Inner Drive Technology. Purveyors of fine, hand-crafted computer software. Page printed 2017-10-21T19:32:49 UTC.